Time;durP1;ratioP1;P1;durP2;ratioP2;P2;SDS_P1;SDS_P2;PMS_P1;PMS_P2;Temp;Humidity;BMP_temperature;BMP_pressure;BME280_temperature;BME280_humidity;BME280_pressure;Samples;Min_cycle;Max_cycle;Signal;HPM_P1;HPM_P2
2022/12/13 00:00:30;;;;;;;422.42;40.58;;;;;;;;;;6341100;22;20074;-96
2022/12/13 00:02:55;;;;;;;290.63;35.72;;;;;;;;;;6338792;22;20029;-94
2022/12/13 00:05:20;;;;;;;402.55;38.78;;;;;;;;;;6339557;22;20335;-95
2022/12/13 00:07:46;;;;;;;494.90;52.88;;;;;;;;;;6338997;22;20022;-95
2022/12/13 00:10:11;;;;;;;390.83;36.17;;;;;;;;;;6311485;22;20041;-94
2022/12/13 00:12:36;;;;;;;465.83;45.28;;;;;;;;;;6340392;22;20077;-93
2022/12/13 00:15:02;;;;;;;521.38;51.80;;;;;;;;;;6340779;22;20099;-92
2022/12/13 00:17:27;;;;;;;582.22;56.90;;;;;;;;;;6311325;22;20059;-95
2022/12/13 00:19:52;;;;;;;645.63;62.25;;;;;;;;;;6339683;22;20017;-95
2022/12/13 00:22:18;;;;;;;678.67;58.38;;;;;;;;;;6314027;22;20011;-94
2022/12/13 00:24:43;;;;;;;486.90;42.47;;;;;;;;;;6311786;22;20011;-94
2022/12/13 00:27:08;;;;;;;534.45;49.25;;;;;;;;;;6358105;22;20014;-95
2022/12/13 00:29:34;;;;;;;443.27;46.45;;;;;;;;;;6333253;22;20054;-95
2022/12/13 00:31:59;;;;;;;402.83;43.83;;;;;;;;;;6350820;22;20010;-94
2022/12/13 00:34:24;;;;;;;470.10;44.92;;;;;;;;;;6338342;22;20215;-93
2022/12/13 00:36:54;;;;;;;471.33;42.42;;;;;;;;;;6310272;22;20002;-94
2022/12/13 00:39:33;;;;;;;487.42;44.10;;;;;;;;;;6314651;22;19999;-95
2022/12/13 00:42:00;;;;;;;552.80;49.22;;;;;;;;;;6319844;22;19999;-93
2022/12/13 00:44:26;;;;;;;484.27;45.95;;;;;;;;;;6310922;22;20014;-94
2022/12/13 00:46:55;;;;;;;469.80;42.05;;;;;;;;;;6311082;22;20003;-92
2022/12/13 00:49:20;;;;;;;560.03;44.20;;;;;;;;;;6311113;22;20010;-95
2022/12/13 00:51:48;;;;;;;493.27;47.10;;;;;;;;;;6338692;22;19995;-94
2022/12/13 00:54:13;;;;;;;516.47;46.35;;;;;;;;;;6310083;22;20030;-95
2022/12/13 00:56:39;;;;;;;460.15;40.00;;;;;;;;;;6310053;22;20018;-95
2022/12/13 00:59:04;;;;;;;447.20;44.05;;;;;;;;;;6309195;22;20476;-95
2022/12/13 01:01:31;;;;;;;510.80;46.13;;;;;;;;;;6310579;22;20327;-95
2022/12/13 01:03:58;;;;;;;496.42;43.95;;;;;;;;;;6312026;22;20423;-94
2022/12/13 01:06:36;;;;;;;506.85;44.83;;;;;;;;;;6338988;22;20737;-94
2022/12/13 01:09:02;;;;;;;466.88;39.67;;;;;;;;;;6340499;22;19998;-94
2022/12/13 01:11:27;;;;;;;421.83;38.85;;;;;;;;;;6310351;22;20077;-94
2022/12/13 01:13:53;;;;;;;450.98;40.40;;;;;;;;;;6312157;22;20007;-94
2022/12/13 01:16:18;;;;;;;429.35;35.13;;;;;;;;;;6311829;22;20098;-94
2022/12/13 01:18:43;;;;;;;422.48;37.47;;;;;;;;;;6337719;22;20025;-94
2022/12/13 01:21:13;;;;;;;347.38;34.03;;;;;;;;;;6338316;22;20253;-94
2022/12/13 01:23:39;;;;;;;357.02;32.58;;;;;;;;;;6311306;22;19999;-92
2022/12/13 01:26:05;;;;;;;477.10;41.10;;;;;;;;;;6310712;22;20083;-94
2022/12/13 01:28:31;;;;;;;373.85;35.22;;;;;;;;;;6337144;22;20007;-93
2022/12/13 01:30:57;;;;;;;562.60;50.35;;;;;;;;;;6308416;22;20010;-92
2022/12/13 01:33:23;;;;;;;426.98;38.22;;;;;;;;;;6307968;22;20686;-95
2022/12/13 01:35:49;;;;;;;525.60;48.08;;;;;;;;;;6307562;22;20076;-95
2022/12/13 01:38:14;;;;;;;331.67;32.65;;;;;;;;;;6307898;22;20382;-93
2022/12/13 01:40:46;;;;;;;449.65;48.08;;;;;;;;;;6335002;22;20547;-93
2022/12/13 01:43:15;;;;;;;434.35;39.45;;;;;;;;;;6335655;22;19995;-94
2022/12/13 01:45:41;;;;;;;538.10;41.97;;;;;;;;;;6335475;22;20003;-94
2022/12/13 01:48:10;;;;;;;468.40;44.83;;;;;;;;;;6307616;22;20014;-94
2022/12/13 01:50:38;;;;;;;555.00;50.47;;;;;;;;;;6335221;22;20007;-94
2022/12/13 01:53:06;;;;;;;547.85;45.85;;;;;;;;;;6336657;22;20010;-94
2022/12/13 01:55:33;;;;;;;464.77;41.78;;;;;;;;;;6303939;22;20026;-94
2022/12/13 01:58:00;;;;;;;425.23;39.90;;;;;;;;;;6306113;22;20367;-93
2022/12/13 02:00:25;;;;;;;396.90;39.85;;;;;;;;;;6305264;22;20031;-94
2022/12/13 02:03:01;;;;;;;442.13;42.50;;;;;;;;;;6305569;22;20659;-94
2022/12/13 02:05:29;;;;;;;437.63;38.85;;;;;;;;;;6305268;22;20022;-95
2022/12/13 02:07:56;;;;;;;458.25;42.40;;;;;;;;;;6304800;22;20006;-93
2022/12/13 02:10:24;;;;;;;433.70;38.25;;;;;;;;;;6305728;22;20045;-94
2022/12/13 02:12:49;;;;;;;571.78;51.90;;;;;;;;;;6305164;22;20057;-95
2022/12/13 02:15:16;;;;;;;497.45;46.28;;;;;;;;;;6306221;22;20057;-94
2022/12/13 02:18:00;;;;;;;491.88;42.78;;;;;;;;;;6304997;22;20400;-94
2022/12/13 02:20:28;;;;;;;527.58;49.22;;;;;;;;;;6306201;22;19991;-94
2022/12/13 02:23:11;;;;;;;497.08;41.65;;;;;;;;;;6303028;22;20392;-95
2022/12/13 02:25:37;;;;;;;;;;;;;;;;;;6303774;22;19999;-94
2022/12/13 02:28:05;;;;;;;372.90;30.67;;;;;;;;;;6307116;22;19906;-95
2022/12/13 02:30:38;;;;;;;433.17;40.47;;;;;;;;;;6300962;22;20033;-94
2022/12/13 02:33:06;;;;;;;469.20;43.95;;;;;;;;;;6300981;22;20011;-95
2022/12/13 02:35:32;;;;;;;448.58;39.95;;;;;;;;;;6304279;22;20039;-94
2022/12/13 02:38:07;;;;;;;379.00;42.83;;;;;;;;;;6304215;22;20006;-96
2022/12/13 02:40:45;;;;;;;326.27;34.20;;;;;;;;;;6305289;22;20087;-95
2022/12/13 02:43:23;;;;;;;248.30;24.48;;;;;;;;;;6305309;22;20029;-93
2022/12/13 02:45:59;;;;;;;323.58;32.28;;;;;;;;;;6302502;22;20007;-95
2022/12/13 02:48:30;;;;;;;478.40;44.80;;;;;;;;;;6304527;22;20026;-95
2022/12/13 02:50:57;;;;;;;434.60;37.50;;;;;;;;;;6304667;22;20007;-95
2022/12/13 02:53:23;;;;;;;420.00;39.92;;;;;;;;;;6307336;22;20180;-95
2022/12/13 02:55:49;;;;;;;287.92;33.75;;;;;;;;;;6305234;22;20057;-95
2022/12/13 02:58:17;;;;;;;242.13;25.20;;;;;;;;;;6303577;22;20069;-94
2022/12/13 03:03:17;;;;;;;299.88;28.35;;;;;;;;;;6264660;22;20035;-90
2022/12/13 03:08:37;;;;;;;70.65;16.83;;;;;;;;;;6298299;22;20010;-90
2022/12/13 03:11:08;;;;;;;66.97;17.65;;;;;;;;;;6277442;22;20086;-92
2022/12/13 03:13:53;;;;;;;52.35;15.07;;;;;;;;;;6282724;22;19995;-91
2022/12/13 03:16:35;;;;;;;69.65;16.10;;;;;;;;;;6278543;22;20026;-92
2022/12/13 03:19:02;;;;;;;61.63;14.70;;;;;;;;;;6279383;22;20010;-92
2022/12/13 03:21:27;;;;;;;64.72;16.33;;;;;;;;;;6281752;22;20022;-91
2022/12/13 03:23:53;;;;;;;60.90;15.93;;;;;;;;;;6285708;22;20011;-90
2022/12/13 03:26:25;;;;;;;80.38;17.48;;;;;;;;;;6309019;22;19995;-91
2022/12/13 03:28:51;;;;;;;73.22;16.55;;;;;;;;;;6301788;22;20070;-90
2022/12/13 03:31:16;;;;;;;77.05;15.93;;;;;;;;;;6300980;22;20030;-92
2022/12/13 03:33:43;;;;;;;94.50;18.67;;;;;;;;;;6301111;22;20006;-91
2022/12/13 03:36:08;;;;;;;65.07;16.73;;;;;;;;;;6273022;22;20125;-91
2022/12/13 03:38:34;;;;;;;121.43;20.08;;;;;;;;;;6273530;22;20440;-90
2022/12/13 03:41:01;;;;;;;81.80;17.05;;;;;;;;;;6273892;22;20764;-91
2022/12/13 03:43:27;;;;;;;90.18;17.02;;;;;;;;;;6275349;22;20022;-91
2022/12/13 03:45:52;;;;;;;104.38;17.77;;;;;;;;;;6300142;22;20428;-92
2022/12/13 03:48:18;;;;;;;88.97;18.10;;;;;;;;;;6272582;22;20392;-92
2022/12/13 03:50:43;;;;;;;76.80;16.88;;;;;;;;;;6274967;22;20037;-92
2022/12/13 03:53:08;;;;;;;160.15;22.08;;;;;;;;;;6273978;22;20003;-92
2022/12/13 03:55:34;;;;;;;117.50;19.35;;;;;;;;;;6273856;22;20014;-92
2022/12/13 03:57:59;;;;;;;162.20;22.33;;;;;;;;;;6301548;22;19999;-91
2022/12/13 04:00:24;;;;;;;149.57;21.02;;;;;;;;;;6300729;22;20220;-92
2022/12/13 04:02:49;;;;;;;128.63;20.42;;;;;;;;;;6280434;22;20558;-91
2022/12/13 04:05:16;;;;;;;159.52;21.27;;;;;;;;;;6332783;22;20016;-91
2022/12/13 04:07:41;;;;;;;79.97;17.20;;;;;;;;;;6304009;22;20019;-92
2022/12/13 04:10:07;;;;;;;92.82;18.70;;;;;;;;;;6334011;22;20032;-91
2022/12/13 04:15:16;;;;;;;81.43;17.83;;;;;;;;;;6333668;22;20090;-90
2022/12/13 04:17:41;;;;;;;54.25;15.88;;;;;;;;;;6302693;22;20030;-93
2022/12/13 04:20:08;;;;;;;51.30;14.52;;;;;;;;;;6304579;22;20105;-91
2022/12/13 04:22:33;;;;;;;54.38;15.70;;;;;;;;;;6302521;22;20060;-92
2022/12/13 04:24:58;;;;;;;48.78;16.42;;;;;;;;;;6332250;22;20002;-91
2022/12/13 04:27:23;;;;;;;57.15;16.92;;;;;;;;;;6301540;22;20002;-93
2022/12/13 04:29:49;;;;;;;50.00;15.70;;;;;;;;;;6303068;22;20002;-91
2022/12/13 04:32:14;;;;;;;55.58;15.40;;;;;;;;;;6302981;22;20246;-92
2022/12/13 04:34:39;;;;;;;56.20;15.90;;;;;;;;;;6303603;22;20018;-92
2022/12/13 04:37:05;;;;;;;62.00;15.88;;;;;;;;;;6303673;22;20006;-92
2022/12/13 04:39:30;;;;;;;53.40;16.20;;;;;;;;;;6304192;22;20013;-91
2022/12/13 04:41:55;;;;;;;60.72;16.02;;;;;;;;;;6304381;22;20015;-91
2022/12/13 04:44:20;;;;;;;56.38;16.35;;;;;;;;;;6303958;22;20006;-91
2022/12/13 04:46:46;;;;;;;54.40;15.98;;;;;;;;;;6303362;22;20066;-91
2022/12/13 04:49:11;;;;;;;56.72;16.58;;;;;;;;;;6302442;22;20002;-90
2022/12/13 04:51:36;;;;;;;53.35;15.48;;;;;;;;;;6331098;22;19998;-91
2022/12/13 04:54:03;;;;;;;58.08;16.48;;;;;;;;;;6330995;22;20590;-92
2022/12/13 04:56:28;;;;;;;58.55;15.93;;;;;;;;;;6305818;22;20109;-91
2022/12/13 04:58:53;;;;;;;50.75;14.82;;;;;;;;;;6332961;22;20439;-91
2022/12/13 05:01:18;;;;;;;57.28;16.45;;;;;;;;;;6303735;22;20003;-91
2022/12/13 05:03:44;;;;;;;51.03;15.82;;;;;;;;;;6277503;22;20023;-91
2022/12/13 05:06:10;;;;;;;53.22;15.70;;;;;;;;;;6273615;22;20064;-91
2022/12/13 05:08:36;;;;;;;56.92;15.75;;;;;;;;;;6270789;22;20018;-92
2022/12/13 05:11:01;;;;;;;59.67;16.10;;;;;;;;;;6271141;22;20012;-91
2022/12/13 05:13:27;;;;;;;50.53;15.00;;;;;;;;;;6271171;22;20025;-91
2022/12/13 05:15:55;;;;;;;49.83;14.65;;;;;;;;;;6270033;22;20432;-93
2022/12/13 05:18:20;;;;;;;52.92;14.50;;;;;;;;;;6269884;22;20000;-92
2022/12/13 05:20:46;;;;;;;51.22;14.73;;;;;;;;;;6271516;22;20115;-92
2022/12/13 05:23:11;;;;;;;50.67;14.43;;;;;;;;;;6276879;22;20157;-92
2022/12/13 05:25:36;;;;;;;43.50;14.57;;;;;;;;;;6272645;22;20268;-91
2022/12/13 05:28:02;;;;;;;46.90;15.25;;;;;;;;;;6302296;22;19995;-91
2022/12/13 05:30:27;;;;;;;56.60;16.85;;;;;;;;;;6270993;22;20011;-91
2022/12/13 05:32:52;;;;;;;55.10;15.50;;;;;;;;;;6298455;22;19999;-91
2022/12/13 05:35:17;;;;;;;53.85;17.05;;;;;;;;;;6274079;22;20007;-92
2022/12/13 05:37:43;;;;;;;52.58;15.27;;;;;;;;;;6276313;22;20011;-91
2022/12/13 05:40:08;;;;;;;50.85;15.23;;;;;;;;;;6305707;22;20377;-91
2022/12/13 05:42:35;;;;;;;46.58;14.90;;;;;;;;;;6309822;22;20011;-91
2022/12/13 05:45:00;;;;;;;50.90;15.55;;;;;;;;;;6300918;22;20041;-91
2022/12/13 05:47:25;;;;;;;51.10;15.83;;;;;;;;;;6270976;22;20110;-90
2022/12/13 05:49:51;;;;;;;48.58;16.08;;;;;;;;;;6275228;22;20845;-91
2022/12/13 05:52:17;;;;;;;53.83;16.08;;;;;;;;;;6281777;22;20045;-90
2022/12/13 05:54:44;;;;;;;47.15;15.13;;;;;;;;;;6284488;22;20113;-91
2022/12/13 05:57:10;;;;;;;49.28;15.27;;;;;;;;;;6274920;22;20000;-91
2022/12/13 05:59:35;;;;;;;47.08;14.82;;;;;;;;;;6302031;22;20026;-91
2022/12/13 06:02:00;;;;;;;52.28;15.48;;;;;;;;;;6277991;22;20448;-92
2022/12/13 06:04:25;;;;;;;57.90;17.02;;;;;;;;;;6332088;22;20324;-91
2022/12/13 06:06:51;;;;;;;50.10;16.42;;;;;;;;;;6305971;22;20006;-90
2022/12/13 06:09:16;;;;;;;51.15;15.35;;;;;;;;;;6304615;22;20002;-92
2022/12/13 06:11:41;;;;;;;51.90;15.02;;;;;;;;;;6307748;22;20089;-92
2022/12/13 06:14:07;;;;;;;62.40;15.60;;;;;;;;;;6331250;22;20470;-92
2022/12/13 06:16:32;;;;;;;58.20;16.13;;;;;;;;;;6332921;22;20011;-92
2022/12/13 06:18:57;;;;;;;48.80;15.00;;;;;;;;;;6304724;22;20093;-93
2022/12/13 06:21:22;;;;;;;54.97;16.23;;;;;;;;;;6305385;22;20003;-91
2022/12/13 06:23:48;;;;;;;50.83;16.48;;;;;;;;;;6304455;22;20010;-90
2022/12/13 06:26:13;;;;;;;61.55;16.10;;;;;;;;;;6304921;22;20409;-91
2022/12/13 06:28:38;;;;;;;56.45;15.80;;;;;;;;;;6298061;22;20007;-91
2022/12/13 06:31:04;;;;;;;46.70;14.25;;;;;;;;;;6301478;22;20027;-90
2022/12/13 06:33:29;;;;;;;48.80;15.32;;;;;;;;;;6332043;22;20019;-91
2022/12/13 06:35:55;;;;;;;52.47;15.48;;;;;;;;;;6328305;22;20049;-93
2022/12/13 06:38:20;;;;;;;50.88;16.67;;;;;;;;;;6332007;22;20489;-92
2022/12/13 06:40:46;;;;;;;52.42;15.52;;;;;;;;;;6331090;22;19995;-92
2022/12/13 06:43:11;;;;;;;46.33;14.70;;;;;;;;;;6302505;22;20026;-93
2022/12/13 06:45:39;;;;;;;51.80;15.90;;;;;;;;;;6304472;22;20129;-92
2022/12/13 06:48:05;;;;;;;54.53;15.90;;;;;;;;;;6304376;22;19999;-93
2022/12/13 06:50:31;;;;;;;45.88;14.85;;;;;;;;;;6306532;22;20090;-93
2022/12/13 06:52:56;;;;;;;53.60;15.20;;;;;;;;;;6303767;22;20507;-92
2022/12/13 06:55:22;;;;;;;52.53;15.82;;;;;;;;;;6304289;22;20014;-93
2022/12/13 06:57:47;;;;;;;49.35;15.93;;;;;;;;;;6304932;22;20038;-92
2022/12/13 07:00:13;;;;;;;52.85;15.82;;;;;;;;;;6303454;22;20003;-92
2022/12/13 07:02:38;;;;;;;39.80;13.43;;;;;;;;;;6302307;22;20080;-92
2022/12/13 07:05:04;;;;;;;35.60;11.77;;;;;;;;;;6302133;22;20390;-92
2022/12/13 07:07:29;;;;;;;32.35;11.35;;;;;;;;;;6303874;22;20010;-93
2022/12/13 07:09:55;;;;;;;26.02;9.95;;;;;;;;;;6332151;22;20007;-93
2022/12/13 07:12:22;;;;;;;39.92;12.80;;;;;;;;;;6302918;22;20032;-93
2022/12/13 07:14:47;;;;;;;34.90;12.02;;;;;;;;;;6305306;22;20086;-92
2022/12/13 07:17:12;;;;;;;40.20;12.95;;;;;;;;;;6307150;22;20730;-93
2022/12/13 07:19:38;;;;;;;38.63;13.23;;;;;;;;;;6333188;22;20428;-92
2022/12/13 07:22:06;;;;;;;42.47;13.50;;;;;;;;;;6333946;22;20006;-92
2022/12/13 07:24:33;;;;;;;46.50;13.10;;;;;;;;;;6304125;22;20015;-94
2022/12/13 07:27:01;;;;;;;39.08;12.93;;;;;;;;;;6303786;22;20007;-94
2022/12/13 07:29:26;;;;;;;44.85;14.38;;;;;;;;;;6305514;22;20055;-94
2022/12/13 07:31:54;;;;;;;42.63;13.73;;;;;;;;;;6305779;22;20045;-94
2022/12/13 07:34:24;;;;;;;38.63;12.13;;;;;;;;;;6306767;22;19991;-94
2022/12/13 07:36:49;;;;;;;39.50;12.63;;;;;;;;;;6333918;22;19999;-93
2022/12/13 07:39:16;;;;;;;41.97;13.23;;;;;;;;;;6308706;22;20064;-93
2022/12/13 07:41:41;;;;;;;46.38;13.43;;;;;;;;;;6306629;22;20003;-94
2022/12/13 07:44:06;;;;;;;38.97;12.53;;;;;;;;;;6309200;22;20089;-93
2022/12/13 07:46:31;;;;;;;36.63;12.55;;;;;;;;;;6304241;22;20234;-94
2022/12/13 07:48:57;;;;;;;32.07;11.53;;;;;;;;;;6306302;22;20007;-93
2022/12/13 07:51:22;;;;;;;33.85;11.45;;;;;;;;;;6302560;22;20239;-92
2022/12/13 07:53:47;;;;;;;39.93;11.73;;;;;;;;;;6303110;22;20416;-93
2022/12/13 07:56:13;;;;;;;30.85;10.63;;;;;;;;;;6303395;22;20247;-92
2022/12/13 07:58:39;;;;;;;35.55;11.77;;;;;;;;;;6301853;22;20665;-93
2022/12/13 08:01:06;;;;;;;37.47;12.20;;;;;;;;;;6301530;22;20007;-93
2022/12/13 08:03:32;;;;;;;30.10;10.95;;;;;;;;;;6284738;22;20518;-91
2022/12/13 08:05:59;;;;;;;35.25;11.50;;;;;;;;;;6282418;22;20011;-91
2022/12/13 08:08:25;;;;;;;36.60;10.82;;;;;;;;;;6281122;22;20014;-92
2022/12/13 08:10:50;;;;;;;31.60;11.05;;;;;;;;;;6271050;22;19995;-91
2022/12/13 08:13:16;;;;;;;32.03;11.30;;;;;;;;;;6273206;22;20007;-91
2022/12/13 08:15:41;;;;;;;34.65;11.60;;;;;;;;;;6277715;22;20326;-91
2022/12/13 08:18:07;;;;;;;32.37;10.33;;;;;;;;;;6283966;22;20010;-91
2022/12/13 08:20:32;;;;;;;38.28;11.20;;;;;;;;;;6279108;22;20315;-92
2022/12/13 08:22:58;;;;;;;33.53;11.07;;;;;;;;;;6274558;22;20078;-91
2022/12/13 08:25:23;;;;;;;34.58;11.20;;;;;;;;;;6273300;22;20280;-91
2022/12/13 08:27:49;;;;;;;35.58;11.02;;;;;;;;;;6269738;22;20003;-91
2022/12/13 08:30:14;;;;;;;31.85;11.18;;;;;;;;;;6267537;22;20007;-92
2022/12/13 08:32:39;;;;;;;31.58;10.57;;;;;;;;;;6267201;22;20094;-92
2022/12/13 08:35:05;;;;;;;39.70;11.90;;;;;;;;;;6296193;22;20427;-92
2022/12/13 08:37:30;;;;;;;35.40;11.43;;;;;;;;;;6297427;22;20899;-93
2022/12/13 08:39:55;;;;;;;36.92;11.23;;;;;;;;;;6270345;22;20018;-91
2022/12/13 08:42:21;;;;;;;42.25;14.13;;;;;;;;;;6296929;22;20068;-92
2022/12/13 08:44:50;;;;;;;40.85;12.13;;;;;;;;;;6270297;22;20003;-92
2022/12/13 08:47:15;;;;;;;30.77;11.00;;;;;;;;;;6272216;22;20246;-92
2022/12/13 08:49:40;;;;;;;30.90;11.70;;;;;;;;;;6271802;22;20100;-91
2022/12/13 08:52:06;;;;;;;30.87;11.73;;;;;;;;;;6269627;22;20003;-91
2022/12/13 08:54:32;;;;;;;32.38;11.27;;;;;;;;;;6269516;22;20554;-91
2022/12/13 08:56:57;;;;;;;31.95;10.55;;;;;;;;;;6268286;22;20015;-92
2022/12/13 08:59:24;;;;;;;32.53;11.80;;;;;;;;;;6301126;22;20328;-92
2022/12/13 09:01:53;;;;;;;32.08;11.35;;;;;;;;;;6273891;22;20231;-92
2022/12/13 09:04:19;;;;;;;34.83;11.65;;;;;;;;;;6298158;22;20086;-91
2022/12/13 09:06:44;;;;;;;32.20;11.48;;;;;;;;;;6270641;22;20038;-92
2022/12/13 09:09:10;;;;;;;33.55;11.55;;;;;;;;;;6269991;22;20011;-92
2022/12/13 09:11:35;;;;;;;38.10;12.80;;;;;;;;;;6296551;22;20074;-92
2022/12/13 09:14:01;;;;;;;34.53;11.90;;;;;;;;;;6294622;22;20006;-91
2022/12/13 09:16:26;;;;;;;36.08;13.07;;;;;;;;;;6270871;22;20429;-92
2022/12/13 09:18:52;;;;;;;37.30;12.35;;;;;;;;;;6298333;22;20000;-91
2022/12/13 09:21:17;;;;;;;35.05;12.15;;;;;;;;;;6268388;22;20034;-92
2022/12/13 09:23:43;;;;;;;34.00;12.40;;;;;;;;;;6297098;22;20110;-92
2022/12/13 09:26:12;;;;;;;41.13;13.65;;;;;;;;;;6271457;22;20018;-93
2022/12/13 09:28:38;;;;;;;37.80;12.80;;;;;;;;;;6272478;22;20037;-92
2022/12/13 09:31:08;;;;;;;37.78;12.52;;;;;;;;;;6270079;22;20016;-92
2022/12/13 09:33:33;;;;;;;42.45;13.60;;;;;;;;;;6272656;22;20117;-91
2022/12/13 09:36:02;;;;;;;39.80;13.55;;;;;;;;;;6271934;22;20400;-91
2022/12/13 09:38:27;;;;;;;41.60;13.18;;;;;;;;;;6273336;22;20003;-90
2022/12/13 09:40:57;;;;;;;42.38;13.75;;;;;;;;;;6305479;22;20061;-92
2022/12/13 09:43:37;;;;;;;37.20;12.85;;;;;;;;;;6284443;22;19987;-93
2022/12/13 09:46:05;;;;;;;39.10;13.80;;;;;;;;;;6206018;22;20085;-91
2022/12/13 09:48:31;;;;;;;42.38;13.05;;;;;;;;;;6238899;22;20011;-91
2022/12/13 09:50:56;;;;;;;41.90;13.40;;;;;;;;;;6264980;22;19995;-91
2022/12/13 09:53:21;;;;;;;39.22;13.30;;;;;;;;;;6239815;22;20006;-91
2022/12/13 09:55:48;;;;;;;36.00;12.90;;;;;;;;;;6239307;22;20008;-91
2022/12/13 09:58:17;;;;;;;37.80;13.48;;;;;;;;;;6265905;22;20388;-91
2022/12/13 10:00:42;;;;;;;38.63;13.63;;;;;;;;;;6238280;22;20556;-92
2022/12/13 10:03:12;;;;;;;39.50;12.80;;;;;;;;;;6239088;22;20007;-93
2022/12/13 10:05:37;;;;;;;36.15;13.57;;;;;;;;;;6265564;22;20064;-93
2022/12/13 10:08:13;;;;;;;42.47;13.45;;;;;;;;;;6267293;22;20023;-90
2022/12/13 10:10:38;;;;;;;41.83;14.48;;;;;;;;;;6238094;22;20065;-91
2022/12/13 10:13:20;;;;;;;44.05;14.48;;;;;;;;;;6240436;22;20003;-90
2022/12/13 10:15:51;;;;;;;32.83;12.68;;;;;;;;;;6240618;22;20012;-90
2022/12/13 10:18:21;;;;;;;31.83;11.98;;;;;;;;;;6242196;22;20429;-91
2022/12/13 10:20:48;;;;;;;33.88;11.77;;;;;;;;;;6241639;22;20015;-89
2022/12/13 10:23:13;;;;;;;32.72;11.88;;;;;;;;;;6253107;22;20071;-92
2022/12/13 10:25:55;;;;;;;30.15;11.38;;;;;;;;;;6248043;22;20042;-91
2022/12/13 10:28:32;;;;;;;29.73;11.68;;;;;;;;;;6269126;22;20449;-92
2022/12/13 10:30:57;;;;;;;27.15;10.80;;;;;;;;;;6240963;22;20082;-90
2022/12/13 10:33:25;;;;;;;30.92;12.05;;;;;;;;;;6263550;22;20024;-90
2022/12/13 10:36:09;;;;;;;29.15;10.98;;;;;;;;;;6245739;22;20015;-90
2022/12/13 10:38:39;;;;;;;32.42;11.60;;;;;;;;;;6243872;22;20007;-92
2022/12/13 10:41:24;;;;;;;28.00;11.23;;;;;;;;;;6266837;22;20069;-90
2022/12/13 10:44:05;;;;;;;31.13;11.20;;;;;;;;;;6240031;22;20019;-92
2022/12/13 10:46:31;;;;;;;26.40;10.77;;;;;;;;;;6227731;23;20032;-91
2022/12/13 10:48:56;;;;;;;27.38;10.77;;;;;;;;;;6207585;23;20499;-90
2022/12/13 10:51:21;;;;;;;26.65;10.50;;;;;;;;;;6210864;23;20008;-91
2022/12/13 10:53:49;;;;;;;29.23;9.57;;;;;;;;;;6209321;23;20441;-90
2022/12/13 10:56:18;;;;;;;26.95;9.75;;;;;;;;;;6238561;23;19996;-91
2022/12/13 10:58:45;;;;;;;29.70;10.75;;;;;;;;;;6208346;23;20181;-90
2022/12/13 11:01:22;;;;;;;27.00;10.95;;;;;;;;;;6208588;23;20074;-92
2022/12/13 11:03:58;;;;;;;30.85;11.82;;;;;;;;;;6208705;23;20069;-90
2022/12/13 11:06:25;;;;;;;31.23;10.80;;;;;;;;;;6211880;23;20009;-92
2022/12/13 11:08:52;;;;;;;29.27;11.77;;;;;;;;;;6209837;23;20004;-92
2022/12/13 11:11:23;;;;;;;27.08;10.73;;;;;;;;;;6210980;23;20000;-92
2022/12/13 11:13:53;;;;;;;25.17;9.80;;;;;;;;;;6213104;23;20004;-92
2022/12/13 11:16:28;;;;;;;26.40;10.45;;;;;;;;;;6209884;23;20099;-92
2022/12/13 11:18:55;;;;;;;21.30;9.07;;;;;;;;;;6210465;23;20030;-90
2022/12/13 11:21:33;;;;;;;28.13;10.60;;;;;;;;;;6211401;23;20028;-91
2022/12/13 11:24:00;;;;;;;22.83;9.63;;;;;;;;;;6212658;23;19996;-92
2022/12/13 11:26:27;;;;;;;25.58;9.98;;;;;;;;;;6209075;23;20111;-92
2022/12/13 11:29:11;;;;;;;23.98;10.13;;;;;;;;;;6237212;23;20003;-92
2022/12/13 11:31:55;;;;;;;27.27;10.65;;;;;;;;;;6209188;23;20008;-91
2022/12/13 11:34:33;;;;;;;23.75;9.55;;;;;;;;;;6208375;23;20020;-91
2022/12/13 11:37:11;;;;;;;24.75;9.85;;;;;;;;;;6209240;23;20019;-93
2022/12/13 11:39:38;;;;;;;25.10;9.57;;;;;;;;;;6210445;23;20011;-92
2022/12/13 11:42:07;;;;;;;25.73;10.70;;;;;;;;;;6212776;23;20011;-92
2022/12/13 11:44:35;;;;;;;25.98;9.35;;;;;;;;;;6209778;23;20004;-91
2022/12/13 11:47:00;;;;;;;24.35;10.35;;;;;;;;;;6269529;22;20023;-92
2022/12/13 11:49:36;;;;;;;22.50;9.52;;;;;;;;;;6272208;22;20027;-92
2022/12/13 11:52:21;;;;;;;27.63;10.30;;;;;;;;;;6272932;22;20550;-91
2022/12/13 11:54:49;;;;;;;25.90;9.65;;;;;;;;;;6297125;22;20015;-92
2022/12/13 11:57:19;;;;;;;25.02;9.95;;;;;;;;;;6298692;22;20003;-92
2022/12/13 11:59:47;;;;;;;25.40;9.93;;;;;;;;;;6301268;22;20000;-92
2022/12/13 12:02:24;;;;;;;24.80;9.60;;;;;;;;;;6270737;22;20003;-92
2022/12/13 12:04:54;;;;;;;27.48;10.48;;;;;;;;;;6266473;22;20019;-91
2022/12/13 12:07:21;;;;;;;21.45;9.43;;;;;;;;;;6271925;22;20003;-92
2022/12/13 12:09:50;;;;;;;26.58;10.02;;;;;;;;;;6270049;22;20015;-92
2022/12/13 12:12:18;;;;;;;26.60;10.40;;;;;;;;;;6272505;22;20009;-92
2022/12/13 12:14:51;;;;;;;26.13;9.68;;;;;;;;;;6270580;22;20079;-91
2022/12/13 12:17:21;;;;;;;26.45;10.77;;;;;;;;;;6300874;22;19999;-92
2022/12/13 12:19:49;;;;;;;23.75;9.98;;;;;;;;;;6300706;22;20003;-92
2022/12/13 12:22:14;;;;;;;25.63;10.07;;;;;;;;;;6273300;22;20003;-92
2022/12/13 12:24:52;;;;;;;22.93;9.67;;;;;;;;;;6272655;22;20011;-91
2022/12/13 12:27:22;;;;;;;26.10;10.48;;;;;;;;;;6300339;22;20240;-91
2022/12/13 12:29:59;;;;;;;24.25;9.80;;;;;;;;;;6268758;22;20761;-91
2022/12/13 12:32:24;;;;;;;24.20;9.35;;;;;;;;;;6272511;22;20053;-90
2022/12/13 12:34:56;;;;;;;24.90;9.98;;;;;;;;;;6270648;22;20015;-91
2022/12/13 12:37:21;;;;;;;26.25;10.45;;;;;;;;;;6272536;22;20037;-91
2022/12/13 12:39:49;;;;;;;23.73;9.77;;;;;;;;;;6301555;22;20011;-91
2022/12/13 12:42:24;;;;;;;25.17;10.48;;;;;;;;;;6273132;22;20003;-90
2022/12/13 12:44:52;;;;;;;25.50;8.95;;;;;;;;;;6277590;22;20000;-91
2022/12/13 12:47:27;;;;;;;21.92;9.13;;;;;;;;;;6275610;22;20030;-91
2022/12/13 12:49:52;;;;;;;24.02;9.02;;;;;;;;;;6275119;22;20010;-91
2022/12/13 12:52:36;;;;;;;22.48;9.27;;;;;;;;;;6271391;22;20011;-90
2022/12/13 12:55:10;;;;;;;26.98;10.07;;;;;;;;;;6271435;22;20056;-89
2022/12/13 12:57:38;;;;;;;22.83;9.35;;;;;;;;;;6303271;22;19999;-91
2022/12/13 13:00:10;;;;;;;26.27;10.00;;;;;;;;;;6273037;22;20013;-91
2022/12/13 13:02:35;;;;;;;25.67;10.37;;;;;;;;;;6268638;22;20005;-90
2022/12/13 13:05:10;;;;;;;22.05;8.90;;;;;;;;;;6269338;22;20086;-90
2022/12/13 13:07:38;;;;;;;22.42;9.07;;;;;;;;;;6269573;22;20007;-91
2022/12/13 13:10:04;;;;;;;22.20;7.88;;;;;;;;;;6270602;22;20014;-90
2022/12/13 13:12:30;;;;;;;23.10;8.93;;;;;;;;;;6296806;22;19995;-90
2022/12/13 13:14:56;;;;;;;22.83;9.45;;;;;;;;;;6270982;22;20058;-90
2022/12/13 13:17:24;;;;;;;22.30;9.75;;;;;;;;;;6299194;22;20006;-90
2022/12/13 13:19:54;;;;;;;23.27;9.68;;;;;;;;;;6269499;22;20003;-91
2022/12/13 13:22:25;;;;;;;21.65;8.45;;;;;;;;;;6300188;22;20078;-91
2022/12/13 13:25:06;;;;;;;20.48;8.80;;;;;;;;;;6270866;22;20015;-90
2022/12/13 13:27:34;;;;;;;21.73;8.30;;;;;;;;;;6272314;22;20000;-91
2022/12/13 13:30:26;;;;;;;24.75;9.13;;;;;;;;;;6273193;22;20026;-91
2022/12/13 13:32:53;;;;;;;26.63;9.55;;;;;;;;;;6292047;22;20010;-91
2022/12/13 13:35:27;;;;;;;26.73;10.77;;;;;;;;;;6300260;22;19999;-92
2022/12/13 13:37:52;;;;;;;30.33;11.88;;;;;;;;;;6299916;22;19995;-91
2022/12/13 13:40:33;;;;;;;26.25;11.10;;;;;;;;;;6273315;22;20100;-91
2022/12/13 13:43:04;;;;;;;27.80;11.20;;;;;;;;;;6301661;22;19999;-91
2022/12/13 13:45:49;;;;;;;31.50;12.05;;;;;;;;;;6272749;22;20781;-92
2022/12/13 13:48:27;;;;;;;29.65;10.73;;;;;;;;;;6298575;22;20022;-91
2022/12/13 13:51:12;;;;;;;28.50;11.05;;;;;;;;;;6270449;22;20080;-92
2022/12/13 13:53:55;;;;;;;24.70;9.65;;;;;;;;;;6298177;22;19991;-91
2022/12/13 13:56:27;;;;;;;25.38;10.32;;;;;;;;;;6272799;22;20034;-92
2022/12/13 13:59:12;;;;;;;28.55;10.82;;;;;;;;;;6268705;22;20587;-93
2022/12/13 14:01:46;;;;;;;25.83;9.98;;;;;;;;;;6270775;22;20003;-92
2022/12/13 14:04:27;;;;;;;29.02;10.73;;;;;;;;;;6295353;22;20041;-91
2022/12/13 14:06:58;;;;;;;26.60;10.13;;;;;;;;;;6271455;22;20093;-92
2022/12/13 14:09:26;;;;;;;25.63;9.52;;;;;;;;;;6269268;22;20554;-91
2022/12/13 14:12:10;;;;;;;26.88;10.30;;;;;;;;;;6295806;22;20082;-92
2022/12/13 14:14:45;;;;;;;21.02;8.55;;;;;;;;;;6269813;22;20026;-92
2022/12/13 14:17:31;;;;;;;26.25;10.10;;;;;;;;;;6269630;22;20007;-92
2022/12/13 14:20:08;;;;;;;25.83;9.93;;;;;;;;;;6299619;22;20006;-92
2022/12/13 14:22:40;;;;;;;26.33;9.48;;;;;;;;;;6273450;22;20010;-91
2022/12/13 14:25:05;;;;;;;24.08;8.85;;;;;;;;;;6272227;22;20007;-92
2022/12/13 14:27:36;;;;;;;24.65;9.02;;;;;;;;;;6272249;22;20134;-91
2022/12/13 14:30:03;;;;;;;27.60;9.43;;;;;;;;;;6272378;22;20007;-92